sensor_id;sensor_type;location;lat;lon;timestamp;P1;durP1;ratioP1;P2;durP2;ratioP2
69381;SDS011;56560;50.692;12.844;2024-01-15T00:01:29;15.63;;;3.87;;
69381;SDS011;56560;50.692;12.844;2024-01-15T00:03:55;15.57;;;4.03;;
69381;SDS011;56560;50.692;12.844;2024-01-15T00:06:21;14.57;;;4.13;;
69381;SDS011;56560;50.692;12.844;2024-01-15T00:08:46;13.20;;;3.63;;
69381;SDS011;56560;50.692;12.844;2024-01-15T00:11:12;16.65;;;4.32;;
69381;SDS011;56560;50.692;12.844;2024-01-15T00:13:38;13.70;;;3.60;;
69381;SDS011;56560;50.692;12.844;2024-01-15T00:16:06;12.90;;;3.92;;
69381;SDS011;56560;50.692;12.844;2024-01-15T00:18:32;13.37;;;4.07;;
69381;SDS011;56560;50.692;12.844;2024-01-15T00:20:58;15.75;;;4.03;;
69381;SDS011;56560;50.692;12.844;2024-01-15T00:23:23;14.03;;;4.27;;
69381;SDS011;56560;50.692;12.844;2024-01-15T00:25:50;11.73;;;3.35;;
69381;SDS011;56560;50.692;12.844;2024-01-15T00:28:16;11.63;;;3.45;;
69381;SDS011;56560;50.692;12.844;2024-01-15T00:30:42;11.87;;;3.80;;
69381;SDS011;56560;50.692;12.844;2024-01-15T00:33:08;16.33;;;4.05;;
69381;SDS011;56560;50.692;12.844;2024-01-15T00:35:33;12.43;;;3.87;;
69381;SDS011;56560;50.692;12.844;2024-01-15T00:37:59;14.95;;;4.32;;
69381;SDS011;56560;50.692;12.844;2024-01-15T00:40:25;12.03;;;3.63;;
69381;SDS011;56560;50.692;12.844;2024-01-15T00:42:50;13.73;;;3.83;;
69381;SDS011;56560;50.692;12.844;2024-01-15T00:45:16;12.80;;;3.70;;
69381;SDS011;56560;50.692;12.844;2024-01-15T00:47:42;15.63;;;4.30;;
69381;SDS011;56560;50.692;12.844;2024-01-15T00:50:07;14.40;;;3.65;;
69381;SDS011;56560;50.692;12.844;2024-01-15T00:52:33;15.20;;;4.07;;
69381;SDS011;56560;50.692;12.844;2024-01-15T00:54:59;13.82;;;3.92;;
69381;SDS011;56560;50.692;12.844;2024-01-15T00:57:25;15.17;;;4.10;;
69381;SDS011;56560;50.692;12.844;2024-01-15T00:59:50;15.80;;;4.40;;
69381;SDS011;56560;50.692;12.844;2024-01-15T01:02:16;14.50;;;4.40;;
69381;SDS011;56560;50.692;12.844;2024-01-15T01:04:42;13.63;;;4.20;;
69381;SDS011;56560;50.692;12.844;2024-01-15T01:07:07;16.20;;;4.37;;
69381;SDS011;56560;50.692;12.844;2024-01-15T01:09:33;17.00;;;4.53;;
69381;SDS011;56560;50.692;12.844;2024-01-15T01:11:59;12.73;;;3.73;;
69381;SDS011;56560;50.692;12.844;2024-01-15T01:14:24;14.10;;;4.43;;
69381;SDS011;56560;50.692;12.844;2024-01-15T01:16:50;17.42;;;4.63;;
69381;SDS011;56560;50.692;12.844;2024-01-15T01:19:15;13.33;;;4.23;;
69381;SDS011;56560;50.692;12.844;2024-01-15T01:21:41;15.75;;;4.63;;
69381;SDS011;56560;50.692;12.844;2024-01-15T01:24:07;15.53;;;4.90;;
69381;SDS011;56560;50.692;12.844;2024-01-15T01:26:32;17.90;;;4.93;;
69381;SDS011;56560;50.692;12.844;2024-01-15T01:28:58;17.03;;;4.33;;
69381;SDS011;56560;50.692;12.844;2024-01-15T01:31:24;17.15;;;5.32;;
69381;SDS011;56560;50.692;12.844;2024-01-15T01:33:50;21.13;;;5.50;;
69381;SDS011;56560;50.692;12.844;2024-01-15T01:36:15;17.33;;;5.13;;
69381;SDS011;56560;50.692;12.844;2024-01-15T01:38:41;13.53;;;3.80;;
69381;SDS011;56560;50.692;12.844;2024-01-15T01:41:07;19.95;;;6.00;;
69381;SDS011;56560;50.692;12.844;2024-01-15T01:43:33;18.10;;;5.10;;
69381;SDS011;56560;50.692;12.844;2024-01-15T01:45:59;16.40;;;5.15;;
69381;SDS011;56560;50.692;12.844;2024-01-15T01:48:26;17.97;;;5.03;;
69381;SDS011;56560;50.692;12.844;2024-01-15T01:50:57;17.35;;;4.78;;
69381;SDS011;56560;50.692;12.844;2024-01-15T01:53:24;15.68;;;4.30;;
69381;SDS011;56560;50.692;12.844;2024-01-15T01:55:51;17.02;;;4.45;;
69381;SDS011;56560;50.692;12.844;2024-01-15T01:58:18;18.30;;;5.45;;
69381;SDS011;56560;50.692;12.844;2024-01-15T02:00:44;14.43;;;4.37;;
69381;SDS011;56560;50.692;12.844;2024-01-15T02:03:11;14.98;;;5.18;;
69381;SDS011;56560;50.692;12.844;2024-01-15T02:05:37;17.13;;;4.90;;
69381;SDS011;56560;50.692;12.844;2024-01-15T02:08:05;15.35;;;4.57;;
69381;SDS011;56560;50.692;12.844;2024-01-15T02:10:30;18.00;;;5.37;;
69381;SDS011;56560;50.692;12.844;2024-01-15T02:12:57;15.43;;;4.60;;
69381;SDS011;56560;50.692;12.844;2024-01-15T02:15:22;17.40;;;4.47;;
69381;SDS011;56560;50.692;12.844;2024-01-15T02:17:58;16.27;;;6.07;;
69381;SDS011;56560;50.692;12.844;2024-01-15T02:20:25;14.00;;;4.68;;
69381;SDS011;56560;50.692;12.844;2024-01-15T02:22:51;16.48;;;4.70;;
69381;SDS011;56560;50.692;12.844;2024-01-15T02:25:17;11.50;;;4.27;;
69381;SDS011;56560;50.692;12.844;2024-01-15T02:27:43;15.68;;;4.82;;
69381;SDS011;56560;50.692;12.844;2024-01-15T02:30:09;16.58;;;4.97;;
69381;SDS011;56560;50.692;12.844;2024-01-15T02:32:36;19.40;;;5.40;;
69381;SDS011;56560;50.692;12.844;2024-01-15T02:35:03;18.88;;;5.47;;
69381;SDS011;56560;50.692;12.844;2024-01-15T02:37:29;18.33;;;5.07;;
69381;SDS011;56560;50.692;12.844;2024-01-15T02:39:54;15.07;;;4.65;;
69381;SDS011;56560;50.692;12.844;2024-01-15T02:42:20;17.37;;;5.07;;
69381;SDS011;56560;50.692;12.844;2024-01-15T02:44:45;18.42;;;5.05;;
69381;SDS011;56560;50.692;12.844;2024-01-15T02:47:11;15.43;;;4.68;;
69381;SDS011;56560;50.692;12.844;2024-01-15T02:49:37;16.33;;;5.43;;
69381;SDS011;56560;50.692;12.844;2024-01-15T02:52:02;16.92;;;4.93;;
69381;SDS011;56560;50.692;12.844;2024-01-15T02:54:28;20.70;;;5.80;;
69381;SDS011;56560;50.692;12.844;2024-01-15T02:56:54;18.67;;;5.60;;
69381;SDS011;56560;50.692;12.844;2024-01-15T02:59:19;21.30;;;6.17;;
69381;SDS011;56560;50.692;12.844;2024-01-15T03:01:45;15.23;;;4.97;;
69381;SDS011;56560;50.692;12.844;2024-01-15T03:04:11;20.90;;;6.60;;
69381;SDS011;56560;50.692;12.844;2024-01-15T03:06:36;17.70;;;5.73;;
69381;SDS011;56560;50.692;12.844;2024-01-15T03:09:02;19.10;;;5.30;;
69381;SDS011;56560;50.692;12.844;2024-01-15T03:11:28;18.17;;;5.60;;
69381;SDS011;56560;50.692;12.844;2024-01-15T03:13:54;20.53;;;5.63;;
69381;SDS011;56560;50.692;12.844;2024-01-15T03:16:19;18.77;;;5.33;;
69381;SDS011;56560;50.692;12.844;2024-01-15T03:18:45;17.65;;;5.50;;
69381;SDS011;56560;50.692;12.844;2024-01-15T03:21:11;19.57;;;5.93;;
69381;SDS011;56560;50.692;12.844;2024-01-15T03:23:36;19.42;;;5.68;;
69381;SDS011;56560;50.692;12.844;2024-01-15T03:26:03;17.90;;;5.57;;
69381;SDS011;56560;50.692;12.844;2024-01-15T03:28:28;17.97;;;5.33;;
69381;SDS011;56560;50.692;12.844;2024-01-15T03:30:55;19.13;;;5.35;;
69381;SDS011;56560;50.692;12.844;2024-01-15T03:33:21;19.60;;;5.90;;
69381;SDS011;56560;50.692;12.844;2024-01-15T03:35:46;17.83;;;5.43;;
69381;SDS011;56560;50.692;12.844;2024-01-15T03:38:13;20.50;;;5.65;;
69381;SDS011;56560;50.692;12.844;2024-01-15T03:40:38;19.10;;;5.40;;
69381;SDS011;56560;50.692;12.844;2024-01-15T03:43:04;16.00;;;4.85;;
69381;SDS011;56560;50.692;12.844;2024-01-15T03:45:30;16.47;;;4.97;;
69381;SDS011;56560;50.692;12.844;2024-01-15T03:47:55;20.65;;;5.43;;
69381;SDS011;56560;50.692;12.844;2024-01-15T03:50:21;18.20;;;5.00;;
69381;SDS011;56560;50.692;12.844;2024-01-15T03:52:46;18.63;;;5.20;;
69381;SDS011;56560;50.692;12.844;2024-01-15T03:55:12;18.13;;;5.10;;
69381;SDS011;56560;50.692;12.844;2024-01-15T03:57:38;20.33;;;5.53;;
69381;SDS011;56560;50.692;12.844;2024-01-15T04:00:03;17.38;;;5.07;;
69381;SDS011;56560;50.692;12.844;2024-01-15T04:02:30;18.35;;;5.03;;
69381;SDS011;56560;50.692;12.844;2024-01-15T04:04:55;18.20;;;4.97;;
69381;SDS011;56560;50.692;12.844;2024-01-15T04:07:21;21.80;;;6.03;;
69381;SDS011;56560;50.692;12.844;2024-01-15T04:09:46;18.90;;;5.13;;
69381;SDS011;56560;50.692;12.844;2024-01-15T04:12:12;16.50;;;4.93;;
69381;SDS011;56560;50.692;12.844;2024-01-15T04:14:37;20.63;;;5.57;;
69381;SDS011;56560;50.692;12.844;2024-01-15T04:17:03;20.63;;;4.95;;
69381;SDS011;56560;50.692;12.844;2024-01-15T04:19:29;23.27;;;5.95;;
69381;SDS011;56560;50.692;12.844;2024-01-15T04:21:54;23.47;;;6.43;;
69381;SDS011;56560;50.692;12.844;2024-01-15T04:24:20;20.65;;;5.50;;
69381;SDS011;56560;50.692;12.844;2024-01-15T04:26:46;18.47;;;5.27;;
69381;SDS011;56560;50.692;12.844;2024-01-15T04:29:12;20.08;;;5.65;;
69381;SDS011;56560;50.692;12.844;2024-01-15T04:31:38;18.93;;;5.43;;
69381;SDS011;56560;50.692;12.844;2024-01-15T04:34:03;15.88;;;5.43;;
69381;SDS011;56560;50.692;12.844;2024-01-15T04:36:29;20.87;;;5.87;;
69381;SDS011;56560;50.692;12.844;2024-01-15T04:38:55;17.35;;;5.15;;
69381;SDS011;56560;50.692;12.844;2024-01-15T04:41:20;22.17;;;5.23;;
69381;SDS011;56560;50.692;12.844;2024-01-15T04:43:46;19.50;;;5.73;;
69381;SDS011;56560;50.692;12.844;2024-01-15T04:46:11;21.45;;;5.28;;
69381;SDS011;56560;50.692;12.844;2024-01-15T04:48:37;18.40;;;5.17;;
69381;SDS011;56560;50.692;12.844;2024-01-15T04:51:08;17.95;;;5.53;;
69381;SDS011;56560;50.692;12.844;2024-01-15T04:53:34;23.38;;;5.35;;
69381;SDS011;56560;50.692;12.844;2024-01-15T04:56:00;22.73;;;5.75;;
69381;SDS011;56560;50.692;12.844;2024-01-15T04:58:25;19.40;;;4.80;;
69381;SDS011;56560;50.692;12.844;2024-01-15T05:00:52;18.67;;;5.22;;
69381;SDS011;56560;50.692;12.844;2024-01-15T05:03:19;21.15;;;5.95;;
69381;SDS011;56560;50.692;12.844;2024-01-15T05:05:45;20.23;;;5.15;;
69381;SDS011;56560;50.692;12.844;2024-01-15T05:08:10;18.77;;;5.20;;
69381;SDS011;56560;50.692;12.844;2024-01-15T05:10:36;17.73;;;5.53;;
69381;SDS011;56560;50.692;12.844;2024-01-15T05:13:02;17.25;;;5.13;;
69381;SDS011;56560;50.692;12.844;2024-01-15T05:15:27;17.55;;;5.22;;
69381;SDS011;56560;50.692;12.844;2024-01-15T05:17:53;18.60;;;5.70;;
69381;SDS011;56560;50.692;12.844;2024-01-15T05:20:19;16.63;;;4.93;;
69381;SDS011;56560;50.692;12.844;2024-01-15T05:22:44;20.63;;;5.70;;
69381;SDS011;56560;50.692;12.844;2024-01-15T05:25:10;19.53;;;5.10;;
69381;SDS011;56560;50.692;12.844;2024-01-15T05:27:35;20.07;;;5.43;;
69381;SDS011;56560;50.692;12.844;2024-01-15T05:30:01;16.42;;;4.40;;
69381;SDS011;56560;50.692;12.844;2024-01-15T05:32:27;20.30;;;5.60;;
69381;SDS011;56560;50.692;12.844;2024-01-15T05:34:52;18.83;;;5.38;;
69381;SDS011;56560;50.692;12.844;2024-01-15T05:37:18;17.03;;;4.70;;
69381;SDS011;56560;50.692;12.844;2024-01-15T05:39:43;20.20;;;5.67;;
69381;SDS011;56560;50.692;12.844;2024-01-15T05:42:09;17.90;;;5.43;;
69381;SDS011;56560;50.692;12.844;2024-01-15T05:44:35;15.17;;;4.50;;
69381;SDS011;56560;50.692;12.844;2024-01-15T05:47:00;12.57;;;3.90;;
69381;SDS011;56560;50.692;12.844;2024-01-15T05:49:26;18.08;;;5.32;;
69381;SDS011;56560;50.692;12.844;2024-01-15T05:51:52;20.00;;;5.53;;
69381;SDS011;56560;50.692;12.844;2024-01-15T05:54:20;18.40;;;5.57;;
69381;SDS011;56560;50.692;12.844;2024-01-15T05:56:46;19.93;;;5.33;;
69381;SDS011;56560;50.692;12.844;2024-01-15T05:59:12;22.73;;;5.43;;
69381;SDS011;56560;50.692;12.844;2024-01-15T06:01:37;20.73;;;5.83;;
69381;SDS011;56560;50.692;12.844;2024-01-15T06:04:03;19.57;;;6.43;;
69381;SDS011;56560;50.692;12.844;2024-01-15T06:06:29;16.60;;;5.25;;
69381;SDS011;56560;50.692;12.844;2024-01-15T06:08:54;18.43;;;5.73;;
69381;SDS011;56560;50.692;12.844;2024-01-15T06:11:20;21.53;;;5.83;;
69381;SDS011;56560;50.692;12.844;2024-01-15T06:13:46;24.95;;;6.47;;
69381;SDS011;56560;50.692;12.844;2024-01-15T06:16:13;19.27;;;5.43;;
69381;SDS011;56560;50.692;12.844;2024-01-15T06:18:39;18.77;;;5.97;;
69381;SDS011;56560;50.692;12.844;2024-01-15T06:21:05;14.77;;;4.37;;
69381;SDS011;56560;50.692;12.844;2024-01-15T06:23:30;15.68;;;4.63;;
69381;SDS011;56560;50.692;12.844;2024-01-15T06:25:56;16.70;;;4.17;;
69381;SDS011;56560;50.692;12.844;2024-01-15T06:28:22;15.83;;;4.53;;
69381;SDS011;56560;50.692;12.844;2024-01-15T06:30:47;18.60;;;5.15;;
69381;SDS011;56560;50.692;12.844;2024-01-15T06:33:13;17.10;;;5.20;;
69381;SDS011;56560;50.692;12.844;2024-01-15T06:35:39;17.02;;;4.82;;
69381;SDS011;56560;50.692;12.844;2024-01-15T06:38:04;16.33;;;4.50;;
69381;SDS011;56560;50.692;12.844;2024-01-15T06:40:30;15.37;;;4.70;;
69381;SDS011;56560;50.692;12.844;2024-01-15T06:42:55;17.23;;;4.47;;
69381;SDS011;56560;50.692;12.844;2024-01-15T06:45:21;13.73;;;3.93;;
69381;SDS011;56560;50.692;12.844;2024-01-15T06:47:47;20.23;;;5.85;;
69381;SDS011;56560;50.692;12.844;2024-01-15T06:50:12;19.67;;;6.85;;
69381;SDS011;56560;50.692;12.844;2024-01-15T06:52:38;17.37;;;4.70;;
69381;SDS011;56560;50.692;12.844;2024-01-15T06:55:04;23.60;;;7.13;;
69381;SDS011;56560;50.692;12.844;2024-01-15T06:57:30;18.48;;;5.28;;
69381;SDS011;56560;50.692;12.844;2024-01-15T06:59:56;14.87;;;4.30;;
69381;SDS011;56560;50.692;12.844;2024-01-15T07:02:22;14.07;;;3.90;;
69381;SDS011;56560;50.692;12.844;2024-01-15T07:04:47;13.48;;;3.90;;
69381;SDS011;56560;50.692;12.844;2024-01-15T07:07:13;18.53;;;4.80;;
69381;SDS011;56560;50.692;12.844;2024-01-15T07:09:38;26.03;;;8.03;;
69381;SDS011;56560;50.692;12.844;2024-01-15T07:12:04;29.27;;;8.70;;
69381;SDS011;56560;50.692;12.844;2024-01-15T07:14:30;22.80;;;6.20;;
69381;SDS011;56560;50.692;12.844;2024-01-15T07:16:55;21.58;;;6.20;;
69381;SDS011;56560;50.692;12.844;2024-01-15T07:19:21;20.60;;;6.03;;
69381;SDS011;56560;50.692;12.844;2024-01-15T07:21:47;18.63;;;5.93;;
69381;SDS011;56560;50.692;12.844;2024-01-15T07:24:12;16.27;;;4.67;;
69381;SDS011;56560;50.692;12.844;2024-01-15T07:26:38;16.33;;;4.07;;
69381;SDS011;56560;50.692;12.844;2024-01-15T07:29:04;13.35;;;4.15;;
69381;SDS011;56560;50.692;12.844;2024-01-15T07:31:30;16.63;;;4.43;;
69381;SDS011;56560;50.692;12.844;2024-01-15T07:33:55;12.73;;;3.77;;
69381;SDS011;56560;50.692;12.844;2024-01-15T07:36:21;16.73;;;4.20;;
69381;SDS011;56560;50.692;12.844;2024-01-15T07:38:47;17.08;;;5.00;;
69381;SDS011;56560;50.692;12.844;2024-01-15T07:41:13;13.20;;;5.00;;
69381;SDS011;56560;50.692;12.844;2024-01-15T07:43:41;14.60;;;4.38;;
69381;SDS011;56560;50.692;12.844;2024-01-15T07:46:07;16.83;;;4.20;;
69381;SDS011;56560;50.692;12.844;2024-01-15T07:48:32;15.95;;;4.47;;
69381;SDS011;56560;50.692;12.844;2024-01-15T07:50:59;12.27;;;3.90;;
69381;SDS011;56560;50.692;12.844;2024-01-15T07:53:24;17.00;;;5.27;;
69381;SDS011;56560;50.692;12.844;2024-01-15T07:55:50;14.03;;;4.13;;
69381;SDS011;56560;50.692;12.844;2024-01-15T07:58:16;20.15;;;5.72;;
69381;SDS011;56560;50.692;12.844;2024-01-15T08:00:41;15.47;;;5.07;;
69381;SDS011;56560;50.692;12.844;2024-01-15T08:03:07;14.65;;;4.40;;
69381;SDS011;56560;50.692;12.844;2024-01-15T08:05:32;13.67;;;3.97;;
69381;SDS011;56560;50.692;12.844;2024-01-15T08:07:58;13.07;;;3.87;;
69381;SDS011;56560;50.692;12.844;2024-01-15T08:10:24;13.27;;;4.25;;
69381;SDS011;56560;50.692;12.844;2024-01-15T08:12:49;18.20;;;5.67;;
69381;SDS011;56560;50.692;12.844;2024-01-15T08:15:15;14.43;;;4.45;;
69381;SDS011;56560;50.692;12.844;2024-01-15T08:17:40;13.27;;;4.45;;
69381;SDS011;56560;50.692;12.844;2024-01-15T08:20:06;13.63;;;4.23;;
69381;SDS011;56560;50.692;12.844;2024-01-15T08:22:32;13.93;;;4.03;;
69381;SDS011;56560;50.692;12.844;2024-01-15T08:24:58;15.33;;;4.43;;
69381;SDS011;56560;50.692;12.844;2024-01-15T08:27:23;12.68;;;3.85;;
69381;SDS011;56560;50.692;12.844;2024-01-15T08:29:49;11.43;;;3.67;;
69381;SDS011;56560;50.692;12.844;2024-01-15T08:32:14;11.77;;;3.60;;
69381;SDS011;56560;50.692;12.844;2024-01-15T08:34:40;14.27;;;4.10;;
69381;SDS011;56560;50.692;12.844;2024-01-15T08:37:07;11.10;;;3.58;;
69381;SDS011;56560;50.692;12.844;2024-01-15T08:39:33;12.27;;;3.80;;
69381;SDS011;56560;50.692;12.844;2024-01-15T08:42:03;16.63;;;3.78;;
69381;SDS011;56560;50.692;12.844;2024-01-15T08:44:37;14.27;;;4.00;;
69381;SDS011;56560;50.692;12.844;2024-01-15T08:47:05;14.50;;;3.80;;
69381;SDS011;56560;50.692;12.844;2024-01-15T08:49:31;10.45;;;3.03;;
69381;SDS011;56560;50.692;12.844;2024-01-15T08:51:57;9.52;;;3.00;;
69381;SDS011;56560;50.692;12.844;2024-01-15T08:54:22;14.40;;;3.20;;
69381;SDS011;56560;50.692;12.844;2024-01-15T08:56:48;15.05;;;3.53;;
69381;SDS011;56560;50.692;12.844;2024-01-15T08:59:14;13.30;;;4.27;;
69381;SDS011;56560;50.692;12.844;2024-01-15T09:01:39;13.63;;;3.27;;
69381;SDS011;56560;50.692;12.844;2024-01-15T09:04:05;12.60;;;3.58;;
69381;SDS011;56560;50.692;12.844;2024-01-15T09:06:31;16.00;;;5.70;;
69381;SDS011;56560;50.692;12.844;2024-01-15T09:08:56;13.13;;;3.80;;
69381;SDS011;56560;50.692;12.844;2024-01-15T09:11:22;17.00;;;4.73;;
69381;SDS011;56560;50.692;12.844;2024-01-15T09:13:47;15.37;;;4.37;;
69381;SDS011;56560;50.692;12.844;2024-01-15T09:16:13;16.38;;;4.35;;
69381;SDS011;56560;50.692;12.844;2024-01-15T09:18:39;11.23;;;3.17;;
69381;SDS011;56560;50.692;12.844;2024-01-15T09:21:04;16.38;;;5.45;;
69381;SDS011;56560;50.692;12.844;2024-01-15T09:23:30;12.23;;;3.23;;
69381;SDS011;56560;50.692;12.844;2024-01-15T09:25:55;11.60;;;3.53;;
69381;SDS011;56560;50.692;12.844;2024-01-15T09:28:21;11.55;;;3.28;;
69381;SDS011;56560;50.692;12.844;2024-01-15T09:30:47;11.70;;;3.38;;
69381;SDS011;56560;50.692;12.844;2024-01-15T09:33:13;13.53;;;4.33;;
69381;SDS011;56560;50.692;12.844;2024-01-15T09:35:39;16.30;;;5.03;;
69381;SDS011;56560;50.692;12.844;2024-01-15T09:38:04;12.32;;;4.10;;
69381;SDS011;56560;50.692;12.844;2024-01-15T09:40:31;15.73;;;4.97;;
69381;SDS011;56560;50.692;12.844;2024-01-15T09:42:59;15.90;;;5.70;;
69381;SDS011;56560;50.692;12.844;2024-01-15T09:45:26;11.90;;;3.83;;
69381;SDS011;56560;50.692;12.844;2024-01-15T09:47:52;13.80;;;4.50;;
69381;SDS011;56560;50.692;12.844;2024-01-15T09:50:18;15.00;;;4.43;;
69381;SDS011;56560;50.692;12.844;2024-01-15T09:52:44;10.93;;;3.27;;
69381;SDS011;56560;50.692;12.844;2024-01-15T09:55:10;15.10;;;4.18;;
69381;SDS011;56560;50.692;12.844;2024-01-15T09:57:38;13.65;;;4.30;;
69381;SDS011;56560;50.692;12.844;2024-01-15T10:00:04;15.02;;;4.43;;
69381;SDS011;56560;50.692;12.844;2024-01-15T10:02:32;14.83;;;4.80;;
69381;SDS011;56560;50.692;12.844;2024-01-15T10:04:58;14.73;;;4.57;;
69381;SDS011;56560;50.692;12.844;2024-01-15T10:07:24;15.82;;;4.38;;
69381;SDS011;56560;50.692;12.844;2024-01-15T10:09:54;13.30;;;3.78;;
69381;SDS011;56560;50.692;12.844;2024-01-15T10:12:21;15.03;;;4.57;;
69381;SDS011;56560;50.692;12.844;2024-01-15T10:14:48;16.23;;;4.15;;
69381;SDS011;56560;50.692;12.844;2024-01-15T10:17:15;14.05;;;4.38;;
69381;SDS011;56560;50.692;12.844;2024-01-15T10:19:41;13.07;;;4.35;;
69381;SDS011;56560;50.692;12.844;2024-01-15T10:22:07;11.90;;;3.55;;
69381;SDS011;56560;50.692;12.844;2024-01-15T10:24:35;12.38;;;3.30;;
69381;SDS011;56560;50.692;12.844;2024-01-15T10:27:05;12.00;;;3.70;;
69381;SDS011;56560;50.692;12.844;2024-01-15T10:29:32;11.33;;;3.63;;
69381;SDS011;56560;50.692;12.844;2024-01-15T10:31:57;11.07;;;3.08;;
69381;SDS011;56560;50.692;12.844;2024-01-15T10:34:26;14.05;;;4.35;;
69381;SDS011;56560;50.692;12.844;2024-01-15T10:36:52;13.00;;;3.90;;
69381;SDS011;56560;50.692;12.844;2024-01-15T10:39:21;10.68;;;3.22;;
69381;SDS011;56560;50.692;12.844;2024-01-15T10:41:47;12.30;;;3.38;;
69381;SDS011;56560;50.692;12.844;2024-01-15T10:44:13;18.47;;;5.73;;
69381;SDS011;56560;50.692;12.844;2024-01-15T10:46:38;12.18;;;4.13;;
69381;SDS011;56560;50.692;12.844;2024-01-15T10:49:05;11.73;;;3.13;;
69381;SDS011;56560;50.692;12.844;2024-01-15T10:51:31;17.52;;;5.95;;
69381;SDS011;56560;50.692;12.844;2024-01-15T10:53:57;11.40;;;3.47;;
69381;SDS011;56560;50.692;12.844;2024-01-15T10:56:25;13.60;;;4.25;;
69381;SDS011;56560;50.692;12.844;2024-01-15T10:58:52;13.23;;;3.97;;
69381;SDS011;56560;50.692;12.844;2024-01-15T11:01:20;13.50;;;3.80;;
69381;SDS011;56560;50.692;12.844;2024-01-15T11:03:49;10.40;;;3.45;;
69381;SDS011;56560;50.692;12.844;2024-01-15T11:06:18;10.35;;;2.83;;
69381;SDS011;56560;50.692;12.844;2024-01-15T11:08:50;12.07;;;3.00;;
69381;SDS011;56560;50.692;12.844;2024-01-15T11:11:17;10.02;;;3.08;;
69381;SDS011;56560;50.692;12.844;2024-01-15T11:13:46;11.23;;;3.20;;
69381;SDS011;56560;50.692;12.844;2024-01-15T11:16:15;12.25;;;3.17;;
69381;SDS011;56560;50.692;12.844;2024-01-15T11:21:25;12.25;;;2.83;;
69381;SDS011;56560;50.692;12.844;2024-01-15T11:23:53;11.18;;;3.42;;
69381;SDS011;56560;50.692;12.844;2024-01-15T11:26:27;11.23;;;3.13;;
69381;SDS011;56560;50.692;12.844;2024-01-15T11:28:54;10.65;;;2.90;;
69381;SDS011;56560;50.692;12.844;2024-01-15T11:31:25;9.55;;;2.83;;
69381;SDS011;56560;50.692;12.844;2024-01-15T11:34:03;12.48;;;3.35;;
69381;SDS011;56560;50.692;12.844;2024-01-15T11:41:58;18.58;;;5.43;;
69381;SDS011;56560;50.692;12.844;2024-01-15T11:44:27;11.77;;;3.67;;
69381;SDS011;56560;50.692;12.844;2024-01-15T11:52:16;11.25;;;3.30;;
69381;SDS011;56560;50.692;12.844;2024-01-15T11:57:21;11.98;;;3.67;;
69381;SDS011;56560;50.692;12.844;2024-01-15T11:59:54;9.60;;;3.20;;
69381;SDS011;56560;50.692;12.844;2024-01-15T12:02:19;9.77;;;2.90;;
69381;SDS011;56560;50.692;12.844;2024-01-15T12:04:45;11.97;;;3.63;;
69381;SDS011;56560;50.692;12.844;2024-01-15T12:07:11;13.50;;;4.00;;
69381;SDS011;56560;50.692;12.844;2024-01-15T12:09:41;11.87;;;3.67;;
69381;SDS011;56560;50.692;12.844;2024-01-15T12:12:11;11.18;;;3.45;;
69381;SDS011;56560;50.692;12.844;2024-01-15T12:14:50;10.75;;;3.75;;
69381;SDS011;56560;50.692;12.844;2024-01-15T12:17:16;13.20;;;3.97;;
69381;SDS011;56560;50.692;12.844;2024-01-15T12:19:42;10.13;;;3.50;;
69381;SDS011;56560;50.692;12.844;2024-01-15T12:22:08;13.75;;;4.10;;
69381;SDS011;56560;50.692;12.844;2024-01-15T12:24:34;11.43;;;3.37;;
69381;SDS011;56560;50.692;12.844;2024-01-15T12:27:01;11.02;;;3.45;;
69381;SDS011;56560;50.692;12.844;2024-01-15T12:29:27;13.38;;;3.90;;
69381;SDS011;56560;50.692;12.844;2024-01-15T12:31:53;12.90;;;3.40;;
69381;SDS011;56560;50.692;12.844;2024-01-15T12:34:19;12.02;;;3.53;;
69381;SDS011;56560;50.692;12.844;2024-01-15T12:36:48;13.68;;;4.13;;
69381;SDS011;56560;50.692;12.844;2024-01-15T12:39:13;18.27;;;6.07;;
69381;SDS011;56560;50.692;12.844;2024-01-15T12:41:40;15.13;;;4.47;;
69381;SDS011;56560;50.692;12.844;2024-01-15T12:44:06;12.60;;;3.47;;
69381;SDS011;56560;50.692;12.844;2024-01-15T12:46:32;12.82;;;4.00;;
69381;SDS011;56560;50.692;12.844;2024-01-15T12:48:57;12.13;;;3.73;;
69381;SDS011;56560;50.692;12.844;2024-01-15T12:51:26;12.57;;;3.73;;
69381;SDS011;56560;50.692;12.844;2024-01-15T12:53:52;17.42;;;4.03;;
69381;SDS011;56560;50.692;12.844;2024-01-15T12:56:18;13.40;;;3.80;;
69381;SDS011;56560;50.692;12.844;2024-01-15T12:58:44;16.23;;;3.43;;
69381;SDS011;56560;50.692;12.844;2024-01-15T13:01:09;13.65;;;3.28;;
69381;SDS011;56560;50.692;12.844;2024-01-15T13:03:35;10.57;;;3.23;;
69381;SDS011;56560;50.692;12.844;2024-01-15T13:06:01;12.35;;;3.67;;
69381;SDS011;56560;50.692;12.844;2024-01-15T13:08:26;11.60;;;3.20;;
69381;SDS011;56560;50.692;12.844;2024-01-15T13:10:54;9.55;;;2.95;;
69381;SDS011;56560;50.692;12.844;2024-01-15T13:13:22;11.45;;;3.00;;
69381;SDS011;56560;50.692;12.844;2024-01-15T13:15:48;9.38;;;2.70;;
69381;SDS011;56560;50.692;12.844;2024-01-15T13:18:13;11.83;;;3.60;;
69381;SDS011;56560;50.692;12.844;2024-01-15T13:20:39;11.82;;;3.53;;
69381;SDS011;56560;50.692;12.844;2024-01-15T13:23:05;12.23;;;3.50;;
69381;SDS011;56560;50.692;12.844;2024-01-15T13:25:30;13.82;;;3.00;;
69381;SDS011;56560;50.692;12.844;2024-01-15T13:27:57;11.37;;;2.73;;
69381;SDS011;56560;50.692;12.844;2024-01-15T13:30:23;18.13;;;3.33;;
69381;SDS011;56560;50.692;12.844;2024-01-15T13:32:48;12.07;;;3.00;;
69381;SDS011;56560;50.692;12.844;2024-01-15T13:35:14;10.52;;;3.25;;
69381;SDS011;56560;50.692;12.844;2024-01-15T13:37:40;12.80;;;3.30;;
69381;SDS011;56560;50.692;12.844;2024-01-15T13:40:08;12.75;;;3.75;;
69381;SDS011;56560;50.692;12.844;2024-01-15T13:42:35;12.80;;;3.97;;
69381;SDS011;56560;50.692;12.844;2024-01-15T13:45:04;11.53;;;3.53;;
69381;SDS011;56560;50.692;12.844;2024-01-15T13:47:31;10.20;;;3.10;;
69381;SDS011;56560;50.692;12.844;2024-01-15T13:49:57;9.98;;;2.90;;
69381;SDS011;56560;50.692;12.844;2024-01-15T13:52:23;13.80;;;3.80;;
69381;SDS011;56560;50.692;12.844;2024-01-15T13:54:48;12.93;;;3.53;;
69381;SDS011;56560;50.692;12.844;2024-01-15T13:57:14;13.32;;;4.35;;
69381;SDS011;56560;50.692;12.844;2024-01-15T13:59:40;18.90;;;6.10;;
69381;SDS011;56560;50.692;12.844;2024-01-15T14:02:06;16.10;;;3.97;;
69381;SDS011;56560;50.692;12.844;2024-01-15T14:04:32;19.98;;;6.40;;
69381;SDS011;56560;50.692;12.844;2024-01-15T14:06:57;19.53;;;5.47;;
69381;SDS011;56560;50.692;12.844;2024-01-15T14:09:23;29.38;;;8.00;;
69381;SDS011;56560;50.692;12.844;2024-01-15T14:11:50;20.90;;;6.18;;
69381;SDS011;56560;50.692;12.844;2024-01-15T14:14:16;18.35;;;5.78;;
69381;SDS011;56560;50.692;12.844;2024-01-15T14:16:43;21.17;;;6.40;;
69381;SDS011;56560;50.692;12.844;2024-01-15T14:19:09;14.23;;;4.30;;
69381;SDS011;56560;50.692;12.844;2024-01-15T14:21:36;12.67;;;3.80;;
69381;SDS011;56560;50.692;12.844;2024-01-15T14:24:01;12.02;;;3.53;;
69381;SDS011;56560;50.692;12.844;2024-01-15T14:26:27;12.43;;;3.80;;
69381;SDS011;56560;50.692;12.844;2024-01-15T14:28:53;12.23;;;4.10;;
69381;SDS011;56560;50.692;12.844;2024-01-15T14:31:19;14.57;;;4.60;;